TAF and METAR

METAR for Brest Airport

UMBB 221230Z 21003MPS 7000 OVC040 10/06 Q1023 R29/CLRD// NOSIG
Report created 22. okt 14:30
wind 6 knots from SSW (210°) visibility 7000 meters overcast at 4000 feet Temperature 10° with dewpoint at 6° (Humidity 76.18%) Pressure 1023 hPa

TAF for Brest Airport

TAF UMBB 221105Z 2212/2221 23005MPS 6000 BKN020 TEMPO 2216/2221 2000 BR BKN005
Report created 22. okt 13:05

between 22. okt 14:00 - 22. okt 23:00

wind 10 knots from SW (230°) visibility 6000 meters broken clouds (~75% cover) at 2000 feet

temporarily between 22. okt 18:00 - 22. okt 23:00

visibility 2000 meters mist broken clouds (~75% cover) at 500 feet
Brest Airport in Belarus at 143m

Latest 5 airports